createdAt,value
2022-12-03T00:01:30.523Z,11.13
2022-12-03T00:03:58.979Z,10.83
2022-12-03T00:06:32.909Z,11.60
2022-12-03T00:09:03.073Z,15.17
2022-12-03T00:11:32.270Z,10.77
2022-12-03T00:14:00.654Z,11.17
2022-12-03T00:16:30.481Z,10.10
2022-12-03T00:18:58.899Z,9.67
2022-12-03T00:21:27.293Z,11.30
2022-12-03T00:23:55.620Z,10.00
2022-12-03T00:26:24.036Z,9.93
2022-12-03T00:28:52.499Z,10.97
2022-12-03T00:31:23.293Z,11.53
2022-12-03T00:33:53.553Z,10.73
2022-12-03T00:36:21.931Z,9.80
2022-12-03T00:38:50.327Z,10.83
2022-12-03T00:41:18.702Z,10.53
2022-12-03T00:43:46.964Z,9.27
2022-12-03T00:46:19.855Z,10.20
2022-12-03T00:48:49.855Z,9.93
2022-12-03T00:51:19.636Z,10.40
2022-12-03T00:53:47.987Z,11.53
2022-12-03T00:56:16.427Z,9.37
2022-12-03T00:58:44.789Z,9.63
2022-12-03T01:01:13.354Z,9.87
2022-12-03T01:03:42.107Z,9.67
2022-12-03T01:06:10.525Z,9.90
2022-12-03T01:08:40.985Z,9.90
2022-12-03T01:11:29.590Z,10.00
2022-12-03T01:13:58.127Z,8.90
2022-12-03T01:16:26.543Z,9.00
2022-12-03T01:18:55.087Z,9.07
2022-12-03T01:21:23.648Z,8.80
2022-12-03T01:23:53.499Z,9.70
2022-12-03T01:26:21.911Z,9.07
2022-12-03T01:28:50.651Z,8.77
2022-12-03T01:31:36.590Z,9.47
2022-12-03T01:34:05.555Z,9.07
2022-12-03T01:36:35.200Z,9.33
2022-12-03T01:39:06.305Z,9.60
2022-12-03T01:41:36.791Z,9.33
2022-12-03T01:44:16.109Z,9.80
2022-12-03T01:46:45.045Z,8.67
2022-12-03T01:49:18.188Z,9.73
2022-12-03T01:51:47.094Z,8.50
2022-12-03T01:54:19.718Z,8.40
2022-12-03T01:56:48.836Z,8.77
2022-12-03T01:59:19.144Z,9.50
2022-12-03T02:01:47.778Z,9.97
2022-12-03T02:04:18.266Z,9.10
2022-12-03T02:06:47.140Z,9.20
2022-12-03T02:09:16.874Z,9.10
2022-12-03T02:11:48.131Z,9.80
2022-12-03T02:14:20.331Z,9.73
2022-12-03T02:16:49.180Z,9.50
2022-12-03T02:19:25.372Z,9.20
2022-12-03T02:22:03.360Z,9.63
2022-12-03T02:24:42.021Z,8.87
2022-12-03T02:27:11.780Z,9.43
2022-12-03T02:29:40.352Z,9.33
2022-12-03T02:32:08.860Z,10.63
2022-12-03T02:34:39.660Z,10.00
2022-12-03T02:37:12.944Z,9.27
2022-12-03T02:39:44.817Z,10.03
2022-12-03T02:42:32.570Z,8.97
2022-12-03T02:45:05.587Z,10.00
2022-12-03T02:47:36.704Z,9.83
2022-12-03T02:50:06.427Z,10.47
2022-12-03T02:52:34.888Z,9.17
2022-12-03T02:55:04.948Z,9.90
2022-12-03T02:57:35.988Z,9.70
2022-12-03T03:00:05.959Z,10.60
2022-12-03T03:02:36.565Z,10.03
2022-12-03T03:05:07.899Z,9.63
2022-12-03T03:07:37.021Z,9.87
2022-12-03T03:10:08.186Z,10.77
2022-12-03T03:12:39.533Z,9.67
2022-12-03T03:15:18.287Z,9.90
2022-12-03T03:17:46.738Z,9.33
2022-12-03T03:20:15.694Z,9.90
2022-12-03T03:22:44.895Z,9.90
2022-12-03T03:25:16.706Z,9.93
2022-12-03T03:27:47.168Z,10.57
2022-12-03T03:30:16.787Z,9.63
2022-12-03T03:32:45.284Z,9.63
2022-12-03T03:35:14.777Z,9.27
2022-12-03T03:37:46.191Z,9.87
2022-12-03T03:40:14.624Z,10.00
2022-12-03T03:42:43.356Z,9.83
2022-12-03T03:45:13.732Z,9.60
2022-12-03T03:47:43.508Z,9.93
2022-12-03T03:50:14.986Z,9.33
2022-12-03T03:52:44.821Z,10.23
2022-12-03T03:55:14.162Z,8.80
2022-12-03T03:57:42.546Z,10.70
2022-12-03T04:00:13.550Z,9.70
2022-12-03T04:02:42.007Z,9.30
2022-12-03T04:05:16.422Z,9.47
2022-12-03T04:07:44.861Z,10.07
2022-12-03T04:10:32.171Z,9.23
2022-12-03T04:13:01.146Z,10.00
2022-12-03T04:15:30.999Z,9.03
2022-12-03T04:18:16.939Z,9.93
2022-12-03T04:20:47.488Z,10.10
2022-12-03T04:23:14.793Z,9.20
2022-12-03T04:26:00.572Z,8.97
2022-12-03T04:28:46.473Z,9.40
2022-12-03T04:31:33.818Z,9.57
2022-12-03T04:34:19.795Z,8.43
2022-12-03T04:36:48.662Z,9.70
2022-12-03T04:39:16.970Z,9.70
2022-12-03T04:41:45.446Z,9.23
2022-12-03T04:44:31.658Z,8.83
2022-12-03T04:47:01.576Z,8.80
2022-12-03T04:49:29.881Z,8.17
2022-12-03T04:51:58.599Z,8.60
2022-12-03T04:54:27.494Z,7.87
2022-12-03T04:56:57.114Z,7.80
2022-12-03T04:59:25.483Z,7.73
2022-12-03T05:01:54.127Z,8.30
2022-12-03T05:04:24.195Z,8.20
2022-12-03T05:06:52.793Z,8.03
2022-12-03T05:09:21.242Z,8.10
2022-12-03T05:11:49.566Z,8.77
2022-12-03T05:14:18.127Z,7.93
2022-12-03T05:16:46.514Z,7.40
2022-12-03T05:19:14.866Z,7.40
2022-12-03T05:21:43.679Z,8.20
2022-12-03T05:24:12.048Z,8.57
2022-12-03T05:26:40.423Z,9.00
2022-12-03T05:29:08.880Z,8.57
2022-12-03T05:31:37.191Z,8.57
2022-12-03T05:34:05.975Z,7.97
2022-12-03T05:36:34.499Z,7.70
2022-12-03T05:39:04.232Z,7.73
2022-12-03T05:41:50.118Z,7.80
2022-12-03T05:44:20.727Z,7.23
2022-12-03T05:46:49.242Z,7.70
2022-12-03T05:49:17.835Z,6.63
2022-12-03T05:51:46.223Z,8.03
2022-12-03T05:54:16.035Z,8.00
2022-12-03T05:56:44.367Z,8.00
2022-12-03T05:59:12.734Z,7.17
2022-12-03T06:01:41.055Z,7.40
2022-12-03T06:04:09.427Z,8.60
2022-12-03T06:06:37.816Z,13.87
2022-12-03T06:09:06.860Z,13.57
2022-12-03T06:11:37.259Z,10.83
2022-12-03T06:14:05.943Z,9.37
2022-12-03T06:16:34.379Z,9.30
2022-12-03T06:19:02.779Z,7.80
2022-12-03T06:21:31.149Z,6.43
2022-12-03T06:24:00.002Z,6.50
2022-12-03T06:26:30.051Z,6.40
2022-12-03T06:28:59.907Z,6.13
2022-12-03T06:31:28.268Z,6.30
2022-12-03T06:33:56.663Z,8.37
2022-12-03T06:36:26.155Z,6.93
2022-12-03T06:38:54.510Z,6.57
2022-12-03T06:41:22.880Z,7.27
2022-12-03T06:43:51.284Z,8.13
2022-12-03T06:46:21.097Z,7.37
2022-12-03T06:48:49.554Z,7.10
2022-12-03T06:51:17.918Z,7.33
2022-12-03T06:53:46.180Z,7.47
2022-12-03T06:56:15.483Z,6.70
2022-12-03T06:58:46.279Z,7.17
2022-12-03T07:01:14.891Z,7.17
2022-12-03T07:03:44.529Z,8.10
2022-12-03T07:06:12.975Z,6.53
2022-12-03T07:08:41.561Z,6.90
2022-12-03T07:11:30.079Z,6.27
2022-12-03T07:14:04.719Z,6.80
2022-12-03T07:16:34.401Z,6.43
2022-12-03T07:19:04.689Z,6.83
2022-12-03T07:21:33.517Z,8.23
2022-12-03T07:24:02.322Z,7.13
2022-12-03T07:26:30.708Z,9.40
2022-12-03T07:28:59.394Z,11.10
2022-12-03T07:31:27.908Z,10.73
2022-12-03T07:33:56.391Z,10.17
2022-12-03T07:36:26.334Z,9.23
2022-12-03T07:38:54.707Z,10.27
2022-12-03T07:41:23.135Z,12.17
2022-12-03T07:43:51.719Z,11.27
2022-12-03T07:46:20.252Z,10.33
2022-12-03T07:48:48.619Z,9.97
2022-12-03T07:51:16.933Z,9.57
2022-12-03T07:53:46.639Z,10.10
2022-12-03T07:56:14.983Z,11.10
2022-12-03T07:58:43.316Z,11.07
2022-12-03T08:01:11.722Z,9.83
2022-12-03T08:03:40.140Z,10.40
2022-12-03T08:06:08.799Z,9.43
2022-12-03T08:08:37.162Z,9.60
2022-12-03T08:11:07.251Z,10.77
2022-12-03T08:13:36.107Z,10.40
2022-12-03T08:16:16.877Z,10.53
2022-12-03T08:18:46.554Z,10.67
2022-12-03T08:21:17.065Z,10.33
2022-12-03T08:23:45.876Z,12.23
2022-12-03T08:26:23.383Z,10.03
2022-12-03T08:28:52.035Z,10.67
2022-12-03T08:31:27.989Z,11.00
2022-12-03T08:34:07.689Z,10.70
2022-12-03T08:36:36.535Z,12.10
2022-12-03T08:39:29.217Z,10.10
2022-12-03T08:42:27.671Z,10.80
2022-12-03T08:44:56.510Z,11.73
2022-12-03T08:47:25.812Z,11.47
2022-12-03T08:49:58.084Z,10.30
2022-12-03T08:52:32.572Z,11.33
2022-12-03T08:55:03.887Z,9.40
2022-12-03T08:57:35.881Z,9.13
2022-12-03T09:00:19.591Z,11.03
2022-12-03T09:02:52.310Z,9.77
2022-12-03T09:05:23.335Z,8.80
2022-12-03T09:07:51.786Z,9.00
2022-12-03T09:10:20.292Z,9.73
2022-12-03T09:12:50.411Z,8.83
2022-12-03T09:15:18.893Z,10.00
2022-12-03T09:17:47.236Z,9.57
2022-12-03T09:20:16.158Z,8.70
2022-12-03T09:22:44.908Z,8.50
2022-12-03T09:25:13.271Z,8.53
2022-12-03T09:27:42.563Z,9.17
2022-12-03T09:30:13.126Z,10.13
2022-12-03T09:32:43.570Z,10.67
2022-12-03T09:35:12.461Z,21.90
2022-12-03T09:37:40.965Z,12.17
2022-12-03T09:40:10.973Z,13.37
2022-12-03T09:42:39.750Z,10.73
2022-12-03T09:45:12.349Z,9.47
2022-12-03T09:47:45.868Z,12.47
2022-12-03T09:50:15.734Z,12.53
2022-12-03T09:52:45.165Z,10.60
2022-12-03T09:55:18.963Z,10.60
2022-12-03T09:57:47.476Z,10.07
2022-12-03T10:00:18.816Z,9.37
2022-12-03T10:02:49.768Z,9.80
2022-12-03T10:05:20.456Z,10.00
2022-12-03T10:07:49.659Z,10.43
2022-12-03T10:10:21.248Z,9.57
2022-12-03T10:12:50.070Z,10.63
2022-12-03T10:15:22.942Z,10.50
2022-12-03T10:17:55.222Z,10.73
2022-12-03T10:20:25.726Z,10.23
2022-12-03T10:22:54.077Z,9.40
2022-12-03T10:25:24.017Z,9.57
2022-12-03T10:28:00.453Z,9.40
2022-12-03T10:30:29.750Z,9.13
2022-12-03T10:33:02.645Z,9.23
2022-12-03T10:35:39.775Z,13.80
2022-12-03T10:38:19.547Z,11.13
2022-12-03T10:40:48.544Z,8.90
2022-12-03T10:43:22.725Z,9.00
2022-12-03T10:45:52.390Z,8.50
2022-12-03T10:48:25.562Z,9.17
2022-12-03T10:50:55.478Z,10.67
2022-12-03T10:53:27.375Z,11.07
2022-12-03T10:55:59.595Z,11.53
2022-12-03T10:58:30.142Z,9.73
2022-12-03T11:01:00.299Z,9.67
2022-12-03T11:03:34.766Z,10.03
2022-12-03T11:06:04.087Z,9.47
2022-12-03T11:08:35.611Z,7.80
2022-12-03T11:11:07.457Z,9.17
2022-12-03T11:13:52.424Z,7.50
2022-12-03T11:17:11.962Z,8.63
2022-12-03T11:19:47.866Z,8.13
2022-12-03T11:22:27.264Z,8.57
2022-12-03T11:25:32.916Z,9.93
2022-12-03T11:28:46.955Z,7.10
2022-12-03T11:31:38.131Z,6.50
2022-12-03T11:34:49.280Z,6.87
2022-12-03T11:37:26.503Z,6.37
2022-12-03T11:40:26.641Z,6.70
2022-12-03T11:42:55.325Z,6.63
2022-12-03T11:45:35.833Z,7.37
2022-12-03T11:48:14.030Z,9.03
2022-12-03T11:50:44.353Z,8.97
2022-12-03T11:53:22.760Z,8.70
2022-12-03T11:56:06.081Z,7.40
2022-12-03T11:58:35.300Z,6.33
2022-12-03T12:01:05.802Z,7.33
2022-12-03T12:03:36.576Z,6.50
2022-12-03T12:06:07.600Z,7.10
2022-12-03T12:08:40.254Z,7.07
2022-12-03T12:11:18.917Z,6.63
2022-12-03T12:13:51.908Z,8.13
2022-12-03T12:16:53.772Z,8.50
2022-12-03T12:19:32.854Z,11.13
2022-12-03T12:22:21.474Z,8.33
2022-12-03T12:24:52.622Z,11.17
2022-12-03T12:27:22.722Z,9.20
2022-12-03T12:29:55.763Z,8.17
2022-12-03T12:32:27.700Z,8.77
2022-12-03T12:35:00.445Z,8.30
2022-12-03T12:37:35.214Z,8.60
2022-12-03T12:40:12.737Z,9.03
2022-12-03T12:42:49.480Z,7.57
2022-12-03T12:45:20.309Z,8.80
2022-12-03T12:47:51.280Z,9.13
2022-12-03T12:50:20.647Z,9.07
2022-12-03T12:52:52.442Z,11.23
2022-12-03T12:55:24.127Z,8.40
2022-12-03T12:57:52.868Z,8.33
2022-12-03T13:00:23.772Z,10.20
2022-12-03T13:02:55.725Z,10.83
2022-12-03T13:05:27.818Z,11.53
2022-12-03T13:08:10.093Z,11.77
2022-12-03T13:10:46.619Z,10.70
2022-12-03T13:13:24.969Z,14.80
2022-12-03T13:16:02.101Z,14.17
2022-12-03T13:18:48.003Z,11.97
2022-12-03T13:21:33.282Z,9.53
2022-12-03T13:24:02.284Z,9.97
2022-12-03T13:26:39.714Z,9.23
2022-12-03T13:29:14.512Z,8.30
2022-12-03T13:31:49.881Z,8.50
2022-12-03T13:34:23.107Z,8.47
2022-12-03T13:36:57.638Z,8.97
2022-12-03T13:39:30.722Z,8.33
2022-12-03T13:42:31.673Z,8.03
2022-12-03T13:45:02.397Z,9.40
2022-12-03T13:47:30.800Z,8.80
2022-12-03T13:50:03.667Z,9.60
2022-12-03T13:52:36.511Z,10.37
2022-12-03T13:55:07.763Z,9.77
2022-12-03T13:57:37.888Z,9.90
2022-12-03T14:00:07.875Z,9.70
2022-12-03T14:02:36.833Z,9.87
2022-12-03T14:05:09.110Z,10.60
2022-12-03T14:07:38.386Z,10.53
2022-12-03T14:10:08.627Z,10.47
2022-12-03T14:12:39.865Z,9.70
2022-12-03T14:15:10.727Z,9.90
2022-12-03T14:17:39.187Z,10.20
2022-12-03T14:20:09.111Z,10.50
2022-12-03T14:22:38.149Z,10.37
2022-12-03T14:25:07.923Z,10.23
2022-12-03T14:27:39.425Z,10.53
2022-12-03T14:30:09.023Z,15.03
2022-12-03T14:32:37.581Z,13.43
2022-12-03T14:35:09.869Z,16.33
2022-12-03T14:37:38.891Z,15.00
2022-12-03T14:40:09.161Z,14.63
2022-12-03T14:42:39.234Z,15.57
2022-12-03T14:45:08.599Z,28.33
2022-12-03T14:47:36.995Z,14.43
2022-12-03T14:50:06.264Z,26.80
2022-12-03T14:52:34.628Z,12.10
2022-12-03T14:55:03.144Z,11.73
2022-12-03T14:57:31.539Z,11.30
2022-12-03T15:00:01.500Z,11.17
2022-12-03T15:02:30.334Z,11.10
2022-12-03T15:04:58.855Z,10.80
2022-12-03T15:07:27.167Z,10.80
2022-12-03T15:09:55.753Z,11.87
2022-12-03T15:12:24.344Z,11.70
2022-12-03T15:14:52.969Z,11.73
2022-12-03T15:17:30.882Z,10.77
2022-12-03T15:19:59.993Z,11.03
2022-12-03T15:22:28.316Z,10.43
2022-12-03T15:24:56.822Z,12.00
2022-12-03T15:27:25.172Z,12.73
2022-12-03T15:29:53.686Z,11.03
2022-12-03T15:32:23.520Z,11.57
2022-12-03T15:34:52.110Z,11.33
2022-12-03T15:37:20.388Z,11.43
2022-12-03T15:39:49.147Z,11.20
2022-12-03T15:42:17.585Z,11.27
2022-12-03T15:44:45.864Z,12.27
2022-12-03T15:47:14.320Z,11.53
2022-12-03T15:49:44.060Z,11.47
2022-12-03T15:52:12.342Z,12.87
2022-12-03T15:54:40.751Z,12.40
2022-12-03T15:57:09.137Z,12.13
2022-12-03T15:59:37.424Z,11.90
2022-12-03T16:02:05.921Z,11.00
2022-12-03T16:04:34.357Z,11.67
2022-12-03T16:07:19.270Z,11.63
2022-12-03T16:09:47.642Z,12.07
2022-12-03T16:12:15.956Z,11.03
2022-12-03T16:14:44.308Z,11.70
2022-12-03T16:17:12.703Z,11.50
2022-12-03T16:19:41.022Z,10.87
2022-12-03T16:22:09.352Z,12.67
2022-12-03T16:24:39.118Z,13.00
2022-12-03T16:27:07.969Z,11.53
2022-12-03T16:29:36.400Z,18.60
2022-12-03T16:32:04.778Z,12.37
2022-12-03T16:34:33.112Z,14.20
2022-12-03T16:37:01.455Z,17.17
2022-12-03T16:39:29.792Z,12.73
2022-12-03T16:41:59.501Z,11.40
2022-12-03T16:44:53.843Z,12.30
2022-12-03T16:47:23.248Z,12.47
2022-12-03T16:49:51.952Z,13.13
2022-12-03T16:52:20.549Z,12.00
2022-12-03T16:54:48.965Z,13.33
2022-12-03T16:57:18.671Z,12.40
2022-12-03T16:59:46.959Z,13.33
2022-12-03T17:02:15.589Z,12.03
2022-12-03T17:04:44.047Z,12.20
2022-12-03T17:07:12.439Z,12.00
2022-12-03T17:09:40.746Z,14.40
2022-12-03T17:12:09.355Z,13.17
2022-12-03T17:14:39.153Z,12.00
2022-12-03T17:17:07.459Z,12.30
2022-12-03T17:19:36.020Z,12.60
2022-12-03T17:22:06.063Z,13.23
2022-12-03T17:24:34.759Z,15.17
2022-12-03T17:27:05.963Z,14.00
2022-12-03T17:29:34.379Z,13.67
2022-12-03T17:32:04.171Z,13.47
2022-12-03T17:34:32.633Z,13.13
2022-12-03T17:37:01.013Z,13.13
2022-12-03T17:39:30.174Z,12.50
2022-12-03T17:41:58.531Z,12.40
2022-12-03T17:44:26.876Z,13.33
2022-12-03T17:46:55.305Z,13.00
2022-12-03T17:49:29.996Z,12.70
2022-12-03T17:52:00.049Z,12.13
2022-12-03T17:54:48.989Z,12.13
2022-12-03T17:57:16.831Z,13.03
2022-12-03T17:59:45.204Z,13.07
2022-12-03T18:02:13.918Z,12.70
2022-12-03T18:04:43.769Z,12.53
2022-12-03T18:07:12.407Z,12.67
2022-12-03T18:09:40.726Z,11.20
2022-12-03T18:12:09.156Z,11.77
2022-12-03T18:14:37.488Z,12.10
2022-12-03T18:17:05.946Z,11.97
2022-12-03T18:19:34.329Z,11.80
2022-12-03T18:22:04.105Z,11.93
2022-12-03T18:24:32.464Z,12.20
2022-12-03T18:27:00.780Z,13.03
2022-12-03T18:29:29.129Z,13.10
2022-12-03T18:31:57.401Z,13.93
2022-12-03T18:34:25.896Z,12.30
2022-12-03T18:36:54.304Z,12.67
2022-12-03T18:39:28.624Z,12.97
2022-12-03T18:41:57.087Z,13.10
2022-12-03T18:44:25.990Z,12.67
2022-12-03T18:46:54.916Z,14.17
2022-12-03T18:49:23.722Z,14.97
2022-12-03T18:51:57.524Z,13.43
2022-12-03T18:54:29.195Z,14.77
2022-12-03T18:56:57.665Z,13.03
2022-12-03T18:59:26.091Z,13.43
2022-12-03T19:01:54.498Z,13.00
2022-12-03T19:04:23.044Z,13.73
2022-12-03T19:06:51.469Z,12.03
2022-12-03T19:09:20.063Z,12.20
2022-12-03T19:11:49.855Z,12.13
2022-12-03T19:14:18.219Z,12.63
2022-12-03T19:16:46.774Z,12.30
2022-12-03T19:19:15.183Z,12.63
2022-12-03T19:21:43.556Z,11.47
2022-12-03T19:24:27.263Z,11.93
2022-12-03T19:26:57.063Z,12.37
2022-12-03T19:29:25.707Z,12.67
2022-12-03T19:31:54.212Z,11.67
2022-12-03T19:34:22.690Z,12.70
2022-12-03T19:36:51.052Z,12.60
2022-12-03T19:39:19.762Z,12.40
2022-12-03T19:41:48.124Z,12.17
2022-12-03T19:44:19.372Z,11.77
2022-12-03T19:46:50.284Z,12.20
2022-12-03T19:49:21.003Z,11.40
2022-12-03T19:51:49.667Z,11.53
2022-12-03T19:54:19.199Z,11.33
2022-12-03T19:56:47.567Z,11.23
2022-12-03T19:59:17.264Z,11.63
2022-12-03T20:01:45.868Z,12.03
2022-12-03T20:04:14.378Z,12.13
2022-12-03T20:06:42.749Z,11.73
2022-12-03T20:09:16.584Z,13.57
2022-12-03T20:11:45.924Z,12.67
2022-12-03T20:14:17.610Z,12.97
2022-12-03T20:16:46.588Z,13.33
2022-12-03T20:19:17.970Z,12.53
2022-12-03T20:21:46.666Z,13.07
2022-12-03T20:24:17.101Z,11.90
2022-12-03T20:26:45.553Z,11.90
2022-12-03T20:29:14.036Z,12.10
2022-12-03T20:31:43.872Z,12.30
2022-12-03T20:34:12.696Z,12.07
2022-12-03T20:36:41.059Z,12.03
2022-12-03T20:39:09.472Z,13.73
2022-12-03T20:41:39.693Z,12.90
2022-12-03T20:44:08.383Z,12.67
2022-12-03T20:46:36.864Z,11.93
2022-12-03T20:49:06.856Z,11.50
2022-12-03T20:51:35.540Z,12.67
2022-12-03T20:54:04.505Z,12.50
2022-12-03T20:56:35.775Z,11.90
2022-12-03T20:59:06.424Z,12.10
2022-12-03T21:01:36.183Z,12.90
2022-12-03T21:04:07.384Z,13.20
2022-12-03T21:06:37.864Z,13.47
2022-12-03T21:09:07.703Z,12.33
2022-12-03T21:11:39.036Z,12.20
2022-12-03T21:14:07.349Z,12.87
2022-12-03T21:17:07.229Z,11.33
2022-12-03T21:19:29.152Z,13.33
2022-12-03T21:21:57.567Z,12.53
2022-12-03T21:24:25.951Z,12.50
2022-12-03T21:26:54.361Z,12.43
2022-12-03T21:29:23.517Z,12.47
2022-12-03T21:31:51.827Z,11.27
2022-12-03T21:34:20.396Z,12.00
2022-12-03T21:36:50.210Z,12.10
2022-12-03T21:39:19.338Z,12.47
2022-12-03T21:42:18.790Z,12.83
2022-12-03T21:44:36.060Z,12.53
2022-12-03T21:47:09.357Z,13.60
2022-12-03T21:49:42.499Z,12.27
2022-12-03T21:52:12.215Z,11.83
2022-12-03T21:54:40.488Z,12.30
2022-12-03T21:57:08.946Z,13.77
2022-12-03T21:59:37.544Z,13.30
2022-12-03T22:02:05.983Z,12.73
2022-12-03T22:04:34.552Z,12.77
2022-12-03T22:07:03.305Z,12.17
2022-12-03T22:09:33.999Z,11.70
2022-12-03T22:12:02.420Z,11.97
2022-12-03T22:14:31.147Z,11.53
2022-12-03T22:16:59.492Z,11.17
2022-12-03T22:19:28.229Z,11.37
2022-12-03T22:21:56.643Z,13.20
2022-12-03T22:24:25.010Z,11.90
2022-12-03T22:26:54.993Z,11.97
2022-12-03T22:29:23.607Z,10.67
2022-12-03T22:31:52.003Z,10.87
2022-12-03T22:34:20.305Z,12.17
2022-12-03T22:36:48.750Z,12.87
2022-12-03T22:39:17.125Z,11.63
2022-12-03T22:41:45.782Z,10.97
2022-12-03T22:44:15.553Z,10.87
2022-12-03T22:46:43.955Z,10.83
2022-12-03T22:49:14.011Z,11.10
2022-12-03T22:51:45.790Z,10.47
2022-12-03T22:54:18.153Z,10.80
2022-12-03T22:56:49.202Z,10.13
2022-12-03T22:59:18.940Z,10.27
2022-12-03T23:01:47.416Z,10.37
2022-12-03T23:04:15.818Z,10.60
2022-12-03T23:06:44.562Z,10.57
2022-12-03T23:09:12.903Z,11.50
2022-12-03T23:11:41.456Z,11.20
2022-12-03T23:14:09.812Z,11.03
2022-12-03T23:16:55.345Z,10.90
2022-12-03T23:19:26.472Z,9.70
2022-12-03T23:21:54.827Z,10.70
2022-12-03T23:24:23.109Z,10.73
2022-12-03T23:26:51.434Z,10.10
2022-12-03T23:29:19.767Z,10.40
2022-12-03T23:31:49.549Z,10.73
2022-12-03T23:34:17.994Z,10.37
2022-12-03T23:36:46.368Z,10.53
2022-12-03T23:39:14.708Z,11.10
2022-12-03T23:41:42.993Z,10.87
2022-12-03T23:44:11.347Z,11.17
2022-12-03T23:46:40.560Z,10.97
2022-12-03T23:49:10.455Z,11.00
2022-12-03T23:51:39.425Z,12.53
2022-12-03T23:54:07.736Z,11.17
2022-12-03T23:56:36.048Z,10.80
2022-12-03T23:59:04.610Z,10.00
